LGIO Airport Information

Runway Information
Runway 14 Length 7874 ft width 148 ft
Elevation 1550 ft Threshold 0 ft Heading 142
Runway 32 Length 7874 ft Width 148 ft
Elevation 1558 ft Threshold 394 ft Heading 322
Airport Frequencies
Type A/D Name APP Frequency 118.6 MHZ
Type A/G Name RDO Frequency 563.7 MHZ
Type AFIS Name AFIS Frequency 132.2 MHZ
Type TWR Name TWR Frequency 132.2 MHZ
Airport Navaids
Type NDB Name Ioannina Frequency 340 KHZ
Type VOR-DME Name Ioannina Frequency 108600 KHZ
Airport Weather Information & NOTAM
ADDS - METARS form results

(0354 UTC 25 March 2019)
Data provider http://aviationweather.gov/metar/data/
 
Forecast for: LGIO (IOANNINA , GR)
Text: TAF LGIO 250200Z 2503/2512 VRB03KT 9999 FEW025
Forecast period: 0300 to 1200 UTC 25 March 2019
Forecast type: FROM: standard forecast or significant change
Winds: variable direction winds at 3 MPH (3 knots; 1.5 m/s)
Visibility: 6 or more miles 10+ km)
Ceiling: at least 12,000 feet AGL
Clouds: few clouds at 2500 feet AGL
Weather: no significant weather forecast for this period
Text: PROB30
Forecast period: 0400 to 0800 UTC 25 March 2019
Forecast type: TEMPORARY: The following changes expected for less than half the time period
Visibility: 2.49 miles (4.01 km)
Ceiling: at least 12,000 feet AGL
Clouds: scattered clouds at 600 feet AGL
Weather: BR  (mist)